Time;durP1;ratioP1;P1;durP2;ratioP2;P2;SDS_P1;SDS_P2;PMS_P1;PMS_P2;Temp;Humidity;BMP_temperature;BMP_pressure;BME280_temperature;BME280_humidity;BME280_pressure;Samples;Min_cycle;Max_cycle;Signal;HPM_P1;HPM_P2
2023/05/15 00:02:11;;;;;;;7.05;4.13;;;12.70;96.50;;;;;;4998879;28;20056;-61
2023/05/15 00:04:38;;;;;;;8.18;5.00;;;12.70;96.50;;;;;;5000829;28;20104;-66
2023/05/15 00:07:05;;;;;;;5.00;4.60;;;12.70;96.50;;;;;;4999916;28;20096;-67
2023/05/15 00:09:31;;;;;;;10.10;5.00;;;12.60;96.40;;;;;;4997812;28;20060;-68
2023/05/15 00:11:59;;;;;;;7.38;5.43;;;12.60;96.40;;;;;;4999925;28;20687;-68
2023/05/15 00:14:26;;;;;;;4.80;4.30;;;12.50;96.30;;;;;;4998798;28;20137;-63
2023/05/15 00:16:52;;;;;;;6.43;5.60;;;12.50;96.40;;;;;;4998270;28;20529;-68
2023/05/15 00:19:19;;;;;;;7.13;4.82;;;12.50;96.40;;;;;;5000681;28;20054;-72
2023/05/15 00:21:46;;;;;;;6.20;4.20;;;12.50;96.40;;;;;;5001455;28;20041;-61
2023/05/15 00:24:13;;;;;;;4.15;3.70;;;12.50;95.80;;;;;;4997523;28;20136;-62
2023/05/15 00:26:40;;;;;;;5.10;4.18;;;12.60;95.60;;;;;;4998523;28;20054;-66
2023/05/15 00:29:07;;;;;;;4.10;3.72;;;12.70;95.60;;;;;;5001327;28;20644;-62
2023/05/15 00:31:34;;;;;;;4.22;3.88;;;12.80;95.80;;;;;;5001338;28;20243;-61
2023/05/15 00:34:00;;;;;;;7.18;4.13;;;12.80;96.10;;;;;;5000798;28;20052;-67
2023/05/15 00:36:28;;;;;;;4.00;3.35;;;12.90;96.70;;;;;;4984459;28;20045;-64
2023/05/15 00:38:55;;;;;;;10.05;5.05;;;12.90;96.80;;;;;;4997334;28;20046;-66
2023/05/15 00:41:27;;;;;;;5.28;3.85;;;13.00;97.40;;;;;;4997428;28;20058;-68
2023/05/15 00:43:55;;;;;;;5.15;4.65;;;13.00;97.20;;;;;;5000040;28;20057;-64
2023/05/15 00:46:23;;;;;;;6.85;3.75;;;13.00;97.40;;;;;;5001629;28;20137;-66
2023/05/15 00:48:50;;;;;;;6.40;4.40;;;13.00;97.60;;;;;;4997356;28;20141;-66
2023/05/15 00:51:17;;;;;;;5.53;3.58;;;13.00;97.50;;;;;;4982641;28;20129;-62
2023/05/15 00:53:44;;;;;;;4.22;3.50;;;13.00;97.60;;;;;;4981683;28;20159;-66
2023/05/15 00:56:11;;;;;;;7.47;3.47;;;13.00;97.30;;;;;;4993758;28;20050;-63
2023/05/15 00:58:39;;;;;;;4.22;3.83;;;13.00;97.50;;;;;;5000389;28;20054;-64
2023/05/15 01:01:06;;;;;;;5.35;4.25;;;13.00;97.50;;;;;;4994991;28;20080;-63
2023/05/15 01:03:34;;;;;;;5.70;3.80;;;13.00;97.70;;;;;;4981866;28;20078;-66
2023/05/15 01:06:01;;;;;;;6.28;4.32;;;13.00;97.80;;;;;;5000745;28;20188;-64
2023/05/15 01:08:36;;;;;;;3.75;3.45;;;13.10;97.50;;;;;;5002566;28;20414;-66
2023/05/15 01:11:06;;;;;;;6.15;3.38;;;13.10;97.50;;;;;;4999902;28;20054;-67
2023/05/15 01:13:33;;;;;;;4.90;4.40;;;13.10;97.40;;;;;;5000883;28;20743;-64
2023/05/15 01:16:00;;;;;;;5.75;3.97;;;13.10;97.50;;;;;;4985714;28;20042;-75
2023/05/15 01:18:31;;;;;;;5.82;5.32;;;13.10;97.40;;;;;;5003540;28;20065;-67
2023/05/15 01:21:04;;;;;;;4.93;3.58;;;13.10;97.40;;;;;;5006064;28;20168;-62
2023/05/15 01:23:51;;;;;;;4.03;3.72;;;13.20;97.20;;;;;;5006699;28;20061;-61
2023/05/15 01:26:23;;;;;;;5.28;4.78;;;13.20;97.10;;;;;;5002599;28;20064;-64
2023/05/15 01:29:03;;;;;;;4.28;3.88;;;13.20;96.80;;;;;;4998988;28;20140;-62
2023/05/15 01:31:33;;;;;;;5.27;3.63;;;13.20;96.90;;;;;;5001856;28;20416;-64
2023/05/15 01:34:05;;;;;;;8.55;4.25;;;13.20;96.80;;;;;;5004508;28;20382;-66
2023/05/15 01:36:41;;;;;;;4.85;2.90;;;13.20;96.60;;;;;;5004852;28;20058;-64
2023/05/15 01:39:10;;;;;;;8.90;4.28;;;13.20;96.20;;;;;;5001301;28;20064;-67
2023/05/15 01:41:49;;;;;;;5.22;3.92;;;13.20;96.20;;;;;;5004274;28;20268;-65
2023/05/15 01:44:25;;;;;;;4.00;3.47;;;13.20;96.20;;;;;;4984606;28;20046;-69
2023/05/15 01:46:56;;;;;;;4.85;3.63;;;13.20;96.00;;;;;;5002991;28;20664;-63
2023/05/15 01:49:25;;;;;;;8.00;3.15;;;13.10;96.20;;;;;;4983855;28;20093;-63
2023/05/15 01:52:15;;;;;;;7.18;3.97;;;13.10;96.10;;;;;;5003668;28;20041;-67
2023/05/15 01:54:42;;;;;;;3.53;3.17;;;13.00;96.10;;;;;;4998799;28;20069;-62
2023/05/15 01:57:10;;;;;;;5.00;3.72;;;13.00;96.00;;;;;;5004712;28;20053;-61
2023/05/15 01:59:38;;;;;;;4.03;3.67;;;13.00;95.90;;;;;;4978662;28;20099;-66
2023/05/15 02:02:06;;;;;;;4.07;3.70;;;13.00;96.00;;;;;;4985513;28;20053;-61
2023/05/15 02:04:33;;;;;;;5.78;4.45;;;12.90;96.00;;;;;;4985078;28;20503;-72
2023/05/15 02:07:02;;;;;;;3.88;3.58;;;12.90;96.00;;;;;;4982459;28;20054;-65
2023/05/15 02:09:31;;;;;;;3.65;3.25;;;12.90;96.10;;;;;;4980376;28;20090;-62
2023/05/15 02:12:03;;;;;;;4.00;3.53;;;12.90;96.00;;;;;;4980044;28;20483;-67
2023/05/15 02:14:31;;;;;;;4.07;3.65;;;12.90;96.10;;;;;;4984619;28;20498;-61
2023/05/15 02:16:58;;;;;;;6.20;3.88;;;12.80;95.70;;;;;;4979948;28;20747;-69
2023/05/15 02:19:26;;;;;;;8.73;3.65;;;12.80;95.40;;;;;;4984146;28;20058;-62
2023/05/15 02:21:53;;;;;;;4.53;4.13;;;12.80;95.50;;;;;;4978697;28;20043;-64
2023/05/15 02:24:19;;;;;;;5.15;3.45;;;12.80;95.80;;;;;;4982049;28;20391;-59
2023/05/15 02:26:49;;;;;;;4.80;4.30;;;12.80;95.70;;;;;;4978108;28;20090;-67
2023/05/15 02:29:22;;;;;;;7.10;4.23;;;12.80;95.50;;;;;;4981762;28;20141;-60
2023/05/15 02:32:13;;;;;;;4.75;3.63;;;12.70;95.70;;;;;;4979098;28;20077;-66
2023/05/15 02:35:09;;;;;;;4.20;3.80;;;12.70;95.20;;;;;;4982304;28;20077;-61
2023/05/15 02:37:38;;;;;;;7.63;3.80;;;12.80;95.20;;;;;;4981035;28;20146;-61
2023/05/15 02:40:10;;;;;;;6.10;4.05;;;12.70;95.10;;;;;;4978602;28;20073;-69
2023/05/15 02:42:39;;;;;;;8.32;4.20;;;12.80;94.80;;;;;;4979018;28;20042;-64
2023/05/15 02:45:08;;;;;;;5.57;4.05;;;12.80;94.80;;;;;;4982231;28;20080;-64
2023/05/15 02:47:36;;;;;;;4.88;4.03;;;12.80;94.50;;;;;;4981138;28;20046;-63
2023/05/15 02:50:03;;;;;;;6.35;3.72;;;12.80;94.40;;;;;;4979827;28;20613;-66
2023/05/15 02:52:36;;;;;;;6.40;3.97;;;12.70;94.20;;;;;;4983300;28;20060;-65
2023/05/15 02:55:03;;;;;;;5.03;4.53;;;12.70;94.20;;;;;;4980554;28;20050;-67
2023/05/15 02:57:30;;;;;;;6.50;4.20;;;12.70;94.40;;;;;;4986052;28;20058;-67
2023/05/15 02:59:57;;;;;;;4.70;3.60;;;12.70;94.50;;;;;;4995896;28;20151;-67
2023/05/15 03:02:24;;;;;;;5.57;4.22;;;12.70;94.30;;;;;;4997859;28;20058;-65
2023/05/15 03:04:51;;;;;;;4.28;3.70;;;12.80;94.70;;;;;;4982070;28;20103;-65
2023/05/15 03:07:18;;;;;;;7.00;4.05;;;12.80;94.90;;;;;;4985505;28;20169;-64
2023/05/15 03:09:45;;;;;;;7.45;4.65;;;12.80;95.10;;;;;;4985332;28;20058;-75
2023/05/15 03:12:12;;;;;;;8.35;4.05;;;12.70;95.30;;;;;;5002319;28;20042;-62
2023/05/15 03:14:38;;;;;;;5.47;4.97;;;12.80;95.50;;;;;;4986229;28;20121;-66
2023/05/15 03:17:06;;;;;;;4.65;3.92;;;12.80;95.80;;;;;;5001690;28;20903;-62
2023/05/15 03:19:33;;;;;;;5.25;4.07;;;12.80;95.80;;;;;;4997111;28;20048;-67
2023/05/15 03:21:59;;;;;;;4.65;3.85;;;12.80;96.00;;;;;;5003510;28;20077;-72
2023/05/15 03:24:26;;;;;;;8.82;5.25;;;12.80;95.90;;;;;;4984761;28;20758;-62
2023/05/15 03:26:54;;;;;;;7.07;4.05;;;12.80;95.60;;;;;;5000905;28;20135;-64
2023/05/15 03:29:21;;;;;;;7.10;3.95;;;12.80;95.20;;;;;;5001848;28;20093;-65
2023/05/15 03:31:48;;;;;;;4.40;4.00;;;12.90;95.30;;;;;;5001503;28;20086;-70
2023/05/15 03:34:15;;;;;;;5.90;3.90;;;12.90;94.90;;;;;;5001925;28;20483;-69
2023/05/15 03:36:42;;;;;;;7.93;4.28;;;12.90;95.20;;;;;;4997496;28;20038;-61
2023/05/15 03:39:09;;;;;;;5.97;5.05;;;12.90;95.00;;;;;;5002153;28;20084;-62
2023/05/15 03:41:37;;;;;;;11.02;4.28;;;12.90;95.00;;;;;;4998459;28;20507;-66
2023/05/15 03:44:04;;;;;;;8.70;4.05;;;12.90;95.00;;;;;;5002601;28;20054;-63
2023/05/15 03:46:30;;;;;;;4.45;4.15;;;12.90;95.10;;;;;;5002818;28;20191;-65
2023/05/15 03:48:57;;;;;;;4.88;3.95;;;12.90;95.20;;;;;;5001758;28;20156;-65
2023/05/15 03:51:25;;;;;;;4.78;4.13;;;12.90;95.40;;;;;;5000237;28;20061;-61
2023/05/15 03:53:53;;;;;;;6.75;4.13;;;13.00;95.50;;;;;;4984823;28;20082;-67
2023/05/15 03:56:22;;;;;;;5.10;3.83;;;13.00;95.40;;;;;;5000664;28;20041;-64
2023/05/15 03:58:48;;;;;;;5.65;3.78;;;13.00;95.40;;;;;;5001457;28;20061;-70
2023/05/15 04:01:16;;;;;;;7.10;4.70;;;13.10;95.30;;;;;;5002292;28;20148;-63
2023/05/15 04:03:43;;;;;;;5.03;3.97;;;13.10;95.20;;;;;;4999692;28;20081;-67
2023/05/15 04:06:09;;;;;;;5.10;3.47;;;13.20;95.10;;;;;;5002434;28;20060;-63
2023/05/15 04:08:36;;;;;;;5.75;4.78;;;13.20;94.90;;;;;;4996785;28;20049;-62
2023/05/15 04:11:06;;;;;;;8.18;3.95;;;13.30;95.10;;;;;;5000222;28;20058;-64
2023/05/15 04:13:33;;;;;;;14.35;4.78;;;13.30;95.00;;;;;;5002456;28;20052;-67
2023/05/15 04:15:59;;;;;;;5.97;3.10;;;13.40;94.80;;;;;;5000446;28;20042;-70
2023/05/15 04:18:26;;;;;;;5.43;4.72;;;13.50;94.70;;;;;;4999976;28;20049;-69
2023/05/15 04:20:53;;;;;;;3.83;3.40;;;13.50;94.60;;;;;;5001285;28;20040;-63
2023/05/15 04:23:20;;;;;;;5.20;3.90;;;13.60;94.10;;;;;;4999266;28;20052;-61
2023/05/15 04:25:47;;;;;;;5.03;3.80;;;13.70;93.70;;;;;;5001285;28;20058;-62
2023/05/15 04:28:14;;;;;;;3.97;3.67;;;13.80;93.60;;;;;;5001889;28;20072;-62
2023/05/15 04:30:41;;;;;;;6.15;3.75;;;13.80;93.50;;;;;;4998526;28;20195;-63
2023/05/15 04:33:08;;;;;;;5.22;3.75;;;13.90;93.50;;;;;;4998894;28;20058;-69
2023/05/15 04:35:35;;;;;;;10.57;4.15;;;14.00;93.60;;;;;;5002670;28;20149;-65
2023/05/15 04:38:02;;;;;;;4.80;3.25;;;14.00;93.40;;;;;;5000484;28;20041;-61
2023/05/15 04:40:29;;;;;;;6.35;3.40;;;14.00;93.50;;;;;;4998250;28;20093;-67
2023/05/15 04:42:56;;;;;;;6.63;4.10;;;14.10;93.10;;;;;;5000716;28;20061;-72
2023/05/15 04:45:25;;;;;;;5.22;3.72;;;14.10;92.90;;;;;;5005434;28;20042;-64
2023/05/15 04:47:52;;;;;;;7.65;4.43;;;14.20;93.00;;;;;;5004603;28;20042;-69
2023/05/15 04:50:19;;;;;;;8.55;4.25;;;14.20;93.00;;;;;;5006246;28;20041;-63
2023/05/15 04:52:47;;;;;;;8.00;3.65;;;14.30;92.70;;;;;;5000378;28;20099;-64
2023/05/15 04:55:14;;;;;;;6.60;3.47;;;14.40;92.80;;;;;;4999420;28;20120;-64
2023/05/15 04:57:41;;;;;;;3.67;3.30;;;14.30;92.10;;;;;;5005840;28;20581;-67
2023/05/15 05:00:11;;;;;;;7.03;3.85;;;14.40;92.60;;;;;;5001016;28;20065;-63
2023/05/15 05:02:38;;;;;;;4.60;4.05;;;14.40;92.30;;;;;;5006709;28;20053;-64
2023/05/15 05:05:06;;;;;;;3.58;3.15;;;14.50;92.40;;;;;;5001335;28;20423;-65
2023/05/15 05:07:34;;;;;;;3.78;3.55;;;14.50;92.30;;;;;;5002893;28;20165;-64
2023/05/15 05:10:02;;;;;;;4.47;4.07;;;14.50;92.40;;;;;;5003657;28;20152;-62
2023/05/15 05:12:29;;;;;;;6.03;4.07;;;14.60;92.20;;;;;;4998055;28;20041;-65
2023/05/15 05:14:56;;;;;;;5.20;4.70;;;14.60;92.00;;;;;;5001068;28;20046;-63
2023/05/15 05:17:23;;;;;;;4.68;3.65;;;14.70;92.20;;;;;;4988239;28;20394;-67
2023/05/15 05:19:50;;;;;;;5.60;3.97;;;14.70;92.60;;;;;;5005975;28;20064;-61
2023/05/15 05:22:17;;;;;;;4.65;3.58;;;14.80;92.30;;;;;;4999678;28;20053;-70
2023/05/15 05:24:44;;;;;;;7.47;3.75;;;14.80;92.60;;;;;;5000940;28;20150;-66
2023/05/15 05:27:11;;;;;;;4.25;3.28;;;14.90;92.40;;;;;;5000906;28;20046;-64
2023/05/15 05:29:38;;;;;;;8.25;4.07;;;15.00;92.60;;;;;;5001972;28;20487;-63
2023/05/15 05:32:06;;;;;;;12.30;5.35;;;15.10;92.10;;;;;;5003999;28;20057;-61
2023/05/15 05:34:33;;;;;;;4.93;3.40;;;15.20;92.30;;;;;;5001150;28;20054;-64
2023/05/15 05:37:00;;;;;;;6.75;4.55;;;15.20;92.00;;;;;;5002417;28;20050;-62
2023/05/15 05:39:27;;;;;;;4.75;3.67;;;15.30;92.10;;;;;;5002093;28;20538;-63
2023/05/15 05:41:54;;;;;;;5.15;3.78;;;15.40;91.90;;;;;;5000272;28;20041;-70
2023/05/15 05:44:21;;;;;;;5.95;3.63;;;15.50;91.90;;;;;;5003857;28;20140;-66
2023/05/15 05:46:48;;;;;;;6.38;3.50;;;15.50;91.60;;;;;;4999963;28;20078;-61
2023/05/15 05:49:15;;;;;;;4.72;4.18;;;15.60;91.70;;;;;;5002203;28;20163;-64
2023/05/15 05:51:45;;;;;;;3.67;3.38;;;15.70;91.60;;;;;;5001960;28;20660;-61
2023/05/15 05:54:13;;;;;;;5.28;3.88;;;15.70;91.30;;;;;;5001662;28;20061;-63
2023/05/15 05:56:41;;;;;;;3.78;3.47;;;15.80;90.60;;;;;;5000638;28;20475;-72
2023/05/15 05:59:08;;;;;;;4.55;3.90;;;15.90;90.70;;;;;;5002263;28;20062;-62
2023/05/15 06:01:35;;;;;;;12.75;4.72;;;16.00;91.00;;;;;;5002218;28;20065;-68
2023/05/15 06:04:02;;;;;;;6.65;3.90;;;16.00;90.70;;;;;;5001427;28;20778;-65
2023/05/15 06:06:29;;;;;;;6.95;4.32;;;16.20;90.90;;;;;;5001588;28;20046;-67
2023/05/15 06:08:56;;;;;;;4.28;3.53;;;16.30;90.20;;;;;;5005150;28;20085;-61
2023/05/15 06:11:23;;;;;;;8.70;4.20;;;16.30;90.20;;;;;;5002002;28;20134;-63
2023/05/15 06:13:51;;;;;;;4.45;3.45;;;16.40;89.50;;;;;;4999868;28;20066;-63
2023/05/15 06:16:18;;;;;;;10.55;5.72;;;16.40;89.20;;;;;;5003180;28;20045;-67
2023/05/15 06:18:45;;;;;;;5.88;3.63;;;16.50;89.40;;;;;;5004070;28;20050;-70
2023/05/15 06:21:12;;;;;;;4.00;3.70;;;16.50;88.60;;;;;;5004029;28;20103;-67
2023/05/15 06:23:39;;;;;;;6.18;3.97;;;16.50;90.10;;;;;;4999942;28;20123;-66
2023/05/15 06:26:06;;;;;;;8.20;4.18;;;16.50;88.90;;;;;;5003995;28;20058;-63
2023/05/15 06:28:33;;;;;;;3.45;3.10;;;16.50;89.00;;;;;;5006929;28;20076;-66
2023/05/15 06:31:00;;;;;;;3.83;3.53;;;16.50;88.60;;;;;;4994821;28;20049;-66
2023/05/15 06:33:26;;;;;;;5.78;4.30;;;16.50;88.50;;;;;;5002512;28;20068;-61
2023/05/15 06:35:53;;;;;;;4.93;3.10;;;16.50;89.00;;;;;;5002038;28;20484;-65
2023/05/15 06:38:20;;;;;;;3.70;3.38;;;16.50;89.10;;;;;;4996940;28;20052;-67
2023/05/15 06:40:47;;;;;;;5.97;4.50;;;16.50;88.70;;;;;;4997266;28;20510;-60
2023/05/15 06:43:14;;;;;;;3.50;3.20;;;16.60;89.40;;;;;;5001378;28;20073;-62
2023/05/15 06:45:41;;;;;;;12.20;5.57;;;16.60;88.60;;;;;;5001146;28;20049;-67
2023/05/15 06:48:07;;;;;;;3.45;3.03;;;16.60;89.10;;;;;;5003337;28;20132;-65
2023/05/15 06:50:35;;;;;;;9.93;3.80;;;16.70;88.10;;;;;;5002382;28;20046;-71
2023/05/15 06:53:02;;;;;;;4.43;3.53;;;16.80;87.70;;;;;;5002161;28;20132;-62
2023/05/15 06:55:29;;;;;;;5.07;3.70;;;16.80;87.10;;;;;;5000184;28;20058;-62
2023/05/15 06:57:55;;;;;;;6.88;3.60;;;16.90;86.70;;;;;;5000732;28;20097;-64
2023/05/15 07:00:22;;;;;;;4.13;3.33;;;17.00;86.60;;;;;;5001892;28;20120;-68
2023/05/15 07:02:49;;;;;;;4.45;3.63;;;17.10;86.50;;;;;;5000441;28;20042;-61
2023/05/15 07:05:16;;;;;;;6.72;2.80;;;17.10;85.40;;;;;;5000815;28;20499;-67
2023/05/15 07:07:43;;;;;;;3.70;3.40;;;17.20;85.20;;;;;;5004181;28;20088;-62
2023/05/15 07:10:10;;;;;;;4.32;3.20;;;17.30;84.60;;;;;;5001840;28;20078;-61
2023/05/15 07:12:37;;;;;;;6.03;3.20;;;17.40;84.20;;;;;;5002903;28;20169;-65
2023/05/15 07:15:04;;;;;;;4.82;3.22;;;17.50;82.80;;;;;;5000281;28;20053;-64
2023/05/15 07:17:32;;;;;;;6.22;4.50;;;17.70;82.50;;;;;;4997698;28;20049;-65
2023/05/15 07:20:00;;;;;;;4.40;3.78;;;17.80;81.50;;;;;;4984837;28;20465;-66
2023/05/15 07:22:27;;;;;;;8.13;4.07;;;17.90;80.90;;;;;;5002456;28;20065;-64
2023/05/15 07:24:54;;;;;;;5.18;4.25;;;18.00;80.60;;;;;;5002851;28;20050;-63
2023/05/15 07:27:21;;;;;;;9.10;3.80;;;18.10;80.60;;;;;;5001076;28;20062;-73
2023/05/15 07:29:48;;;;;;;4.55;3.25;;;18.20;80.70;;;;;;5003176;28;20048;-69
2023/05/15 07:32:15;;;;;;;3.80;3.38;;;18.20;80.30;;;;;;4999450;28;20484;-66
2023/05/15 07:34:42;;;;;;;6.22;3.83;;;18.30;78.50;;;;;;5000025;28;20141;-64
2023/05/15 07:37:09;;;;;;;5.82;4.80;;;18.30;78.10;;;;;;4982934;28;20062;-66
2023/05/15 07:39:36;;;;;;;3.72;3.25;;;18.30;79.30;;;;;;5001416;28;20160;-66
2023/05/15 07:42:03;;;;;;;3.95;3.65;;;18.30;78.50;;;;;;4998642;28;20141;-61
2023/05/15 07:44:30;;;;;;;9.25;3.97;;;18.40;79.10;;;;;;5000715;28;20046;-61
2023/05/15 07:46:58;;;;;;;3.33;3.13;;;18.40;78.90;;;;;;5002815;28;20145;-64
2023/05/15 07:49:24;;;;;;;7.15;3.05;;;18.50;78.60;;;;;;4997103;28;20054;-73
2023/05/15 07:51:51;;;;;;;5.90;3.92;;;18.50;78.80;;;;;;4999449;28;20053;-67
2023/05/15 07:54:18;;;;;;;5.10;3.60;;;18.60;79.50;;;;;;4996059;28;20235;-70
2023/05/15 07:56:45;;;;;;;4.00;3.50;;;18.70;78.30;;;;;;4997740;28;20145;-61
2023/05/15 07:59:12;;;;;;;5.93;3.50;;;18.90;79.80;;;;;;4999848;28;20050;-67
2023/05/15 08:01:39;;;;;;;7.57;4.95;;;19.10;79.60;;;;;;4996448;28;20545;-66
2023/05/15 08:04:08;;;;;;;5.47;4.38;;;19.20;79.40;;;;;;5002356;28;20149;-69
2023/05/15 08:06:38;;;;;;;5.93;3.28;;;19.30;79.40;;;;;;4999984;28;20046;-60
2023/05/15 08:09:05;;;;;;;5.43;3.75;;;19.50;80.00;;;;;;5000806;28;20511;-70
2023/05/15 08:11:32;;;;;;;10.43;4.63;;;19.50;77.80;;;;;;4997312;28;20219;-65
2023/05/15 08:13:59;;;;;;;5.15;3.22;;;19.50;78.60;;;;;;5003265;28;20834;-69
2023/05/15 08:16:26;;;;;;;6.90;3.75;;;19.40;77.90;;;;;;5003423;28;20146;-67
2023/05/15 08:18:57;;;;;;;3.50;3.20;;;19.40;79.10;;;;;;5002420;28;20049;-64
2023/05/15 08:21:24;;;;;;;4.35;3.53;;;19.30;79.40;;;;;;4998269;28;20501;-74
2023/05/15 08:23:51;;;;;;;7.40;3.63;;;19.30;79.00;;;;;;5001653;28;20380;-65
2023/05/15 08:26:20;;;;;;;3.72;3.40;;;19.20;80.40;;;;;;5000215;28;20043;-63
2023/05/15 08:28:47;;;;;;;4.28;3.78;;;19.20;80.90;;;;;;5001452;28;20620;-68
2023/05/15 08:31:14;;;;;;;5.65;4.03;;;19.20;80.50;;;;;;5002002;28;20062;-60
2023/05/15 08:33:41;;;;;;;7.15;4.28;;;19.20;80.30;;;;;;5001226;28;20580;-60
2023/05/15 08:36:08;;;;;;;7.00;4.00;;;19.20;80.80;;;;;;5001756;28;20057;-65
2023/05/15 08:38:35;;;;;;;6.80;3.88;;;19.10;81.30;;;;;;4997320;28;20042;-61
2023/05/15 08:41:09;;;;;;;18.35;4.35;;;19.00;82.30;;;;;;5001341;28;20160;-61
2023/05/15 08:43:38;;;;;;;4.50;3.55;;;19.00;81.40;;;;;;4998123;28;20399;-63
2023/05/15 08:46:05;;;;;;;4.60;4.10;;;18.90;82.40;;;;;;5001662;28;20049;-60
2023/05/15 08:48:35;;;;;;;4.57;3.78;;;18.80;82.80;;;;;;5003662;28;20133;-61
2023/05/15 08:51:07;;;;;;;5.90;4.00;;;18.70;83.10;;;;;;4995320;28;20049;-62
2023/05/15 08:53:34;;;;;;;9.65;5.80;;;18.60;83.70;;;;;;4994735;28;20076;-66
2023/05/15 08:56:02;;;;;;;5.53;3.67;;;18.60;83.70;;;;;;4994970;28;20072;-65
2023/05/15 08:58:29;;;;;;;6.55;3.72;;;18.60;84.20;;;;;;4996625;28;20506;-67
2023/05/15 09:00:57;;;;;;;5.65;5.07;;;18.60;85.10;;;;;;4999071;28;20053;-63
2023/05/15 09:03:25;;;;;;;11.57;6.50;;;18.60;84.50;;;;;;4997388;28;20054;-68
2023/05/15 09:05:53;;;;;;;5.43;4.47;;;18.60;83.30;;;;;;4999997;28;20388;-63
2023/05/15 09:08:22;;;;;;;6.20;4.20;;;18.60;84.70;;;;;;5001933;28;20145;-66
2023/05/15 09:10:51;;;;;;;12.93;5.15;;;18.80;85.30;;;;;;4996996;28;20054;-63
2023/05/15 09:13:18;;;;;;;6.90;5.05;;;18.90;84.20;;;;;;4999586;28;20053;-76
2023/05/15 09:15:46;;;;;;;7.35;4.88;;;19.00;84.50;;;;;;5002589;28;20053;-75
2023/05/15 09:18:14;;;;;;;4.70;4.32;;;19.10;83.90;;;;;;5000131;28;20141;-63
2023/05/15 09:20:41;;;;;;;4.05;3.35;;;19.20;83.90;;;;;;5002056;28;20058;-74
2023/05/15 09:23:22;;;;;;;4.20;3.88;;;19.20;82.90;;;;;;4997613;28;20052;-75
2023/05/15 09:25:51;;;;;;;7.68;4.38;;;19.30;83.40;;;;;;4991899;28;20048;-68
2023/05/15 09:28:29;;;;;;;5.03;4.53;;;19.20;83.50;;;;;;5001545;28;20052;-63
2023/05/15 09:31:07;;;;;;;3.85;3.45;;;19.30;83.80;;;;;;5004364;28;20049;-65
2023/05/15 09:33:36;;;;;;;8.43;4.32;;;19.30;84.20;;;;;;5002601;28;20061;-64
2023/05/15 09:36:05;;;;;;;8.82;4.93;;;19.30;83.60;;;;;;5006232;28;20410;-62
2023/05/15 09:38:33;;;;;;;4.45;4.05;;;19.30;83.90;;;;;;5005172;28;20087;-70
2023/05/15 09:41:05;;;;;;;9.07;4.13;;;19.20;83.80;;;;;;4999973;28;20092;-63
2023/05/15 09:43:35;;;;;;;7.72;5.93;;;19.30;83.70;;;;;;5002789;28;20046;-66
2023/05/15 09:46:02;;;;;;;5.40;4.15;;;19.30;84.60;;;;;;5002324;28;20488;-70
2023/05/15 09:48:30;;;;;;;8.35;4.63;;;19.40;83.70;;;;;;5004592;28;20060;-64
2023/05/15 09:50:57;;;;;;;6.40;4.57;;;19.40;85.20;;;;;;5002904;28;20058;-62
2023/05/15 09:53:24;;;;;;;4.70;4.15;;;19.60;82.30;;;;;;5001276;28;20064;-64
2023/05/15 09:55:52;;;;;;;8.68;4.82;;;19.80;82.60;;;;;;5001740;28;20065;-63
2023/05/15 09:58:19;;;;;;;8.75;4.53;;;19.90;81.60;;;;;;4999021;28;20052;-70
2023/05/15 10:00:46;;;;;;;6.88;3.97;;;20.10;80.70;;;;;;5005534;28;20053;-63
2023/05/15 10:03:18;;;;;;;5.35;4.57;;;20.30;80.40;;;;;;4989259;28;20447;-62
2023/05/15 10:05:46;;;;;;;7.07;4.25;;;20.60;80.10;;;;;;4998985;28;20046;-62
2023/05/15 10:08:14;;;;;;;13.30;4.45;;;20.90;79.20;;;;;;5002710;28;20049;-77
2023/05/15 10:10:42;;;;;;;10.18;4.70;;;21.10;79.10;;;;;;5005631;28;20491;-71
2023/05/15 10:13:10;;;;;;;7.72;3.75;;;21.20;79.10;;;;;;5001341;28;20068;-70
2023/05/15 10:15:38;;;;;;;6.80;5.07;;;21.40;78.50;;;;;;5005689;28;20140;-64
2023/05/15 10:18:06;;;;;;;6.05;3.45;;;21.60;78.00;;;;;;5004734;28;20108;-64
2023/05/15 10:20:36;;;;;;;7.07;3.72;;;21.70;76.70;;;;;;5005340;28;20420;-65
2023/05/15 10:23:05;;;;;;;6.50;4.13;;;21.90;77.00;;;;;;5001042;28;20096;-65
2023/05/15 10:25:34;;;;;;;4.95;4.28;;;22.10;76.50;;;;;;5002941;28;20167;-61
2023/05/15 10:28:02;;;;;;;6.40;3.50;;;22.20;77.30;;;;;;5001437;28;20126;-69
2023/05/15 10:30:31;;;;;;;4.28;3.88;;;22.20;76.80;;;;;;5001719;28;20085;-61
2023/05/15 10:32:59;;;;;;;6.57;3.28;;;22.30;76.70;;;;;;4999787;28;20145;-67
2023/05/15 10:35:27;;;;;;;6.55;3.55;;;22.10;76.10;;;;;;5002190;28;20050;-67
2023/05/15 10:37:54;;;;;;;4.68;4.28;;;22.10;76.30;;;;;;5003833;28;20081;-71
2023/05/15 10:40:22;;;;;;;9.10;3.67;;;22.10;75.50;;;;;;5001158;28;20088;-64
2023/05/15 10:42:50;;;;;;;6.40;3.78;;;22.30;75.70;;;;;;5000328;28;20480;-71
2023/05/15 10:45:18;;;;;;;4.43;3.03;;;22.70;76.40;;;;;;4998365;28;20809;-69
2023/05/15 10:47:45;;;;;;;6.53;3.40;;;22.90;74.40;;;;;;4997985;28;20053;-65
2023/05/15 10:50:13;;;;;;;6.18;4.38;;;23.00;72.80;;;;;;5000751;28;20054;-72
2023/05/15 10:52:41;;;;;;;5.50;4.05;;;22.90;72.80;;;;;;5001610;28;20068;-72
2023/05/15 10:55:12;;;;;;;7.38;3.85;;;22.70;72.90;;;;;;4999626;28;20058;-72
2023/05/15 10:57:39;;;;;;;4.32;3.92;;;22.80;74.60;;;;;;5001465;28;20054;-62
2023/05/15 11:00:21;;;;;;;10.73;4.32;;;22.60;73.80;;;;;;5004533;28;20379;-63
2023/05/15 11:02:52;;;;;;;4.40;4.03;;;22.60;73.40;;;;;;5000942;28;20418;-70
2023/05/15 11:05:19;;;;;;;3.88;3.47;;;22.60;73.90;;;;;;5002745;28;20050;-70
2023/05/15 11:08:14;;;;;;;3.72;3.42;;;22.80;74.00;;;;;;4998871;28;20571;-63
2023/05/15 11:10:41;;;;;;;6.72;3.97;;;22.90;73.70;;;;;;5003567;28;20085;-68
2023/05/15 11:13:08;;;;;;;9.50;3.22;;;23.00;74.00;;;;;;5002226;28;20140;-65
2023/05/15 11:15:42;;;;;;;4.90;3.40;;;22.80;72.30;;;;;;5001936;28;20057;-66
2023/05/15 11:18:09;;;;;;;13.80;3.72;;;22.70;74.30;;;;;;5000174;28;20046;-64
2023/05/15 11:20:41;;;;;;;4.95;4.53;;;22.80;74.50;;;;;;4998134;28;20046;-75
2023/05/15 11:23:08;;;;;;;7.20;4.18;;;23.00;74.30;;;;;;4997713;28;20734;-65
2023/05/15 11:25:36;;;;;;;3.95;3.35;;;23.40;75.00;;;;;;5002888;28;20054;-65
2023/05/15 11:28:04;;;;;;;4.18;3.45;;;23.60;73.60;;;;;;5001629;28;20066;-70
2023/05/15 11:30:38;;;;;;;10.52;4.18;;;23.50;72.10;;;;;;4977298;28;20050;-73
2023/05/15 11:33:09;;;;;;;5.03;4.20;;;23.70;74.60;;;;;;5000822;28;20078;-62
2023/05/15 11:35:44;;;;;;;;;;;23.70;73.40;;;;;;5001186;28;20066;-64
2023/05/15 11:38:23;;;;;;;3.10;2.83;;;23.60;73.60;;;;;;4995581;28;19957;-64
2023/05/15 11:40:55;;;;;;;12.30;4.95;;;23.80;73.80;;;;;;5000227;28;20086;-64
2023/05/15 11:43:23;;;;;;;5.28;4.45;;;23.80;72.70;;;;;;4957402;28;20050;-71
2023/05/15 11:46:02;;;;;;;3.90;3.42;;;23.50;71.40;;;;;;5001591;28;20042;-67
2023/05/15 11:48:32;;;;;;;7.20;3.92;;;23.50;72.00;;;;;;4993910;28;20062;-66
2023/05/15 11:51:03;;;;;;;5.38;3.80;;;23.50;72.40;;;;;;5001432;28;20636;-67
2023/05/15 11:53:31;;;;;;;4.55;3.25;;;23.30;71.30;;;;;;5000555;28;20060;-64
2023/05/15 11:55:58;;;;;;;5.55;3.92;;;23.20;72.30;;;;;;5003193;28;20058;-63
2023/05/15 11:58:25;;;;;;;3.58;3.03;;;23.30;72.30;;;;;;5002180;28;20064;-63
2023/05/15 12:00:53;;;;;;;6.32;4.40;;;23.50;71.70;;;;;;5001982;28;20048;-69
2023/05/15 12:03:25;;;;;;;4.00;3.28;;;23.50;71.00;;;;;;5000260;28;20546;-64
2023/05/15 12:05:53;;;;;;;6.03;3.15;;;23.40;71.30;;;;;;5003294;28;20060;-61
2023/05/15 12:08:31;;;;;;;4.32;3.92;;;23.60;70.90;;;;;;5001819;28;20051;-61
2023/05/15 12:10:59;;;;;;;4.78;3.28;;;23.70;71.70;;;;;;4999619;28;20053;-61
2023/05/15 12:13:26;;;;;;;5.55;3.88;;;23.80;71.30;;;;;;5000855;28;20050;-62
2023/05/15 12:15:55;;;;;;;9.05;3.92;;;23.90;73.90;;;;;;5003874;28;20070;-64
2023/05/15 12:18:22;;;;;;;5.07;3.17;;;23.90;72.50;;;;;;5000439;28;20046;-72
2023/05/15 12:20:53;;;;;;;6.10;3.35;;;23.90;70.50;;;;;;5003682;28;20050;-66
2023/05/15 12:23:22;;;;;;;3.58;2.88;;;23.90;69.60;;;;;;5001301;28;20053;-64
2023/05/15 12:25:57;;;;;;;5.28;4.30;;;24.10;70.80;;;;;;5002167;28;20161;-70
2023/05/15 12:28:25;;;;;;;6.50;3.80;;;24.10;70.50;;;;;;5003088;28;20057;-67
2023/05/15 12:30:53;;;;;;;3.85;2.92;;;24.00;71.10;;;;;;5003463;28;20518;-61
2023/05/15 12:33:20;;;;;;;5.20;2.88;;;23.80;71.30;;;;;;4998911;28;20046;-64
2023/05/15 12:35:54;;;;;;;6.18;2.88;;;23.80;70.00;;;;;;5003875;28;20056;-62
2023/05/15 12:38:26;;;;;;;5.93;3.90;;;23.70;72.00;;;;;;5000836;28;20058;-68
2023/05/15 12:40:54;;;;;;;11.63;4.30;;;23.60;70.40;;;;;;5001631;28;20510;-64
2023/05/15 12:43:24;;;;;;;6.25;3.80;;;23.40;70.50;;;;;;5001133;28;20050;-66
2023/05/15 12:45:59;;;;;;;4.57;3.85;;;23.40;71.50;;;;;;5001713;28;20850;-61
2023/05/15 12:48:31;;;;;;;6.85;4.13;;;23.40;71.60;;;;;;5003349;28;20046;-62
2023/05/15 12:51:06;;;;;;;5.20;3.53;;;23.20;72.20;;;;;;4999063;28;20100;-74
2023/05/15 12:53:33;;;;;;;13.32;3.67;;;23.10;72.10;;;;;;5001532;28;20073;-67